sensor_id;sensor_type;location;lat;lon;timestamp;pressure;altitude;pressure_sealevel;temperature;humidity
61205;BME280;47068;55.780;37.520;2024-01-27T00:01:31;99834.66;;;-2.26;72.68
61205;BME280;47068;55.780;37.520;2024-01-27T00:03:57;99822.56;;;-2.27;72.58
61205;BME280;47068;55.780;37.520;2024-01-27T00:06:22;99831.53;;;-2.15;72.19
61205;BME280;47068;55.780;37.520;2024-01-27T00:08:48;99821.50;;;-2.23;71.93
61205;BME280;47068;55.780;37.520;2024-01-27T00:11:13;99820.66;;;-2.23;71.83
61205;BME280;47068;55.780;37.520;2024-01-27T00:13:39;99810.66;;;-2.15;72.35
61205;BME280;47068;55.780;37.520;2024-01-27T00:16:04;99834.75;;;-1.94;72.48
61205;BME280;47068;55.780;37.520;2024-01-27T00:18:30;99825.50;;;-1.84;72.73
61205;BME280;47068;55.780;37.520;2024-01-27T00:20:56;99831.84;;;-2.06;71.43
61205;BME280;47068;55.780;37.520;2024-01-27T00:23:21;99835.91;;;-2.33;72.07
61205;BME280;47068;55.780;37.520;2024-01-27T00:25:46;99829.44;;;-2.59;72.75
61205;BME280;47068;55.780;37.520;2024-01-27T00:28:12;99829.69;;;-2.63;73.56
61205;BME280;47068;55.780;37.520;2024-01-27T00:30:37;99806.94;;;-2.77;73.48
61205;BME280;47068;55.780;37.520;2024-01-27T00:33:03;99807.09;;;-2.80;73.96
61205;BME280;47068;55.780;37.520;2024-01-27T00:35:28;99821.94;;;-2.65;74.60
61205;BME280;47068;55.780;37.520;2024-01-27T00:37:54;99827.78;;;-2.27;74.25
61205;BME280;47068;55.780;37.520;2024-01-27T00:40:19;99829.66;;;-2.13;73.05
61205;BME280;47068;55.780;37.520;2024-01-27T00:42:45;99836.81;;;-2.17;72.72
61205;BME280;47068;55.780;37.520;2024-01-27T00:45:10;99835.69;;;-2.28;73.07
61205;BME280;47068;55.780;37.520;2024-01-27T00:47:36;99838.25;;;-2.11;73.76
61205;BME280;47068;55.780;37.520;2024-01-27T00:50:01;99816.72;;;-2.15;73.05
61205;BME280;47068;55.780;37.520;2024-01-27T00:52:27;99837.91;;;-2.05;72.99
61205;BME280;47068;55.780;37.520;2024-01-27T00:54:52;99844.16;;;-2.08;72.86
61205;BME280;47068;55.780;37.520;2024-01-27T00:57:18;99841.09;;;-2.16;73.07
61205;BME280;47068;55.780;37.520;2024-01-27T00:59:43;99843.72;;;-2.16;73.50
61205;BME280;47068;55.780;37.520;2024-01-27T01:02:09;99822.56;;;-2.27;72.70
61205;BME280;47068;55.780;37.520;2024-01-27T01:04:34;99842.28;;;-2.21;73.22
61205;BME280;47068;55.780;37.520;2024-01-27T01:06:59;99834.84;;;-2.29;72.89
61205;BME280;47068;55.780;37.520;2024-01-27T01:09:25;99835.00;;;-2.32;73.09
61205;BME280;47068;55.780;37.520;2024-01-27T01:11:51;99839.00;;;-2.42;73.03
61205;BME280;47068;55.780;37.520;2024-01-27T01:14:16;99843.84;;;-2.52;73.18
61205;BME280;47068;55.780;37.520;2024-01-27T01:16:41;99838.09;;;-2.58;73.51
61205;BME280;47068;55.780;37.520;2024-01-27T01:19:07;99842.22;;;-2.54;73.74
61205;BME280;47068;55.780;37.520;2024-01-27T01:21:33;99850.09;;;-2.39;73.14
61205;BME280;47068;55.780;37.520;2024-01-27T01:23:59;99842.53;;;-2.43;73.11
61205;BME280;47068;55.780;37.520;2024-01-27T01:26:25;99807.31;;;-2.67;73.59
61205;BME280;47068;55.780;37.520;2024-01-27T01:28:50;99841.69;;;-2.44;73.82
61205;BME280;47068;55.780;37.520;2024-01-27T01:31:16;99847.03;;;-2.47;73.24
61205;BME280;47068;55.780;37.520;2024-01-27T01:33:42;99847.81;;;-2.45;73.50
61205;BME280;47068;55.780;37.520;2024-01-27T01:36:08;99844.22;;;-2.42;73.51
61205;BME280;47068;55.780;37.520;2024-01-27T01:38:33;99822.16;;;-2.52;73.20
61205;BME280;47068;55.780;37.520;2024-01-27T01:40:59;99825.53;;;-2.50;72.98
61205;BME280;47068;55.780;37.520;2024-01-27T01:43:24;99846.38;;;-2.50;72.90
61205;BME280;47068;55.780;37.520;2024-01-27T01:45:49;99837.22;;;-2.42;73.64
61205;BME280;47068;55.780;37.520;2024-01-27T01:48:16;99839.44;;;-2.34;73.62
61205;BME280;47068;55.780;37.520;2024-01-27T01:50:41;99839.00;;;-2.42;72.61
61205;BME280;47068;55.780;37.520;2024-01-27T01:53:07;99847.09;;;-2.31;72.81
61205;BME280;47068;55.780;37.520;2024-01-27T01:55:34;99850.88;;;-2.36;72.66
61205;BME280;47068;55.780;37.520;2024-01-27T01:57:59;99852.25;;;-2.47;72.96
61205;BME280;47068;55.780;37.520;2024-01-27T02:00:25;99849.81;;;-2.67;73.63
61205;BME280;47068;55.780;37.520;2024-01-27T02:02:50;99832.16;;;-2.78;73.98
61205;BME280;47068;55.780;37.520;2024-01-27T02:05:16;99842.69;;;-2.81;73.80
61205;BME280;47068;55.780;37.520;2024-01-27T02:07:41;99861.69;;;-2.79;73.99
61205;BME280;47068;55.780;37.520;2024-01-27T02:10:13;99859.56;;;-2.70;74.67
61205;BME280;47068;55.780;37.520;2024-01-27T02:12:39;99856.31;;;-2.75;74.19
61205;BME280;47068;55.780;37.520;2024-01-27T02:15:05;99865.88;;;-2.76;73.84
61205;BME280;47068;55.780;37.520;2024-01-27T02:17:30;99838.25;;;-2.96;73.67
61205;BME280;47068;55.780;37.520;2024-01-27T02:19:56;99866.97;;;-2.80;74.16
61205;BME280;47068;55.780;37.520;2024-01-27T02:22:21;99867.97;;;-2.83;74.30
61205;BME280;47068;55.780;37.520;2024-01-27T02:24:47;99857.53;;;-2.83;73.85
61205;BME280;47068;55.780;37.520;2024-01-27T02:27:12;99872.47;;;-2.69;74.42
61205;BME280;47068;55.780;37.520;2024-01-27T02:29:38;99879.06;;;-2.62;73.40
61205;BME280;47068;55.780;37.520;2024-01-27T02:32:04;99883.91;;;-2.71;73.69
61205;BME280;47068;55.780;37.520;2024-01-27T02:34:29;99844.09;;;-2.91;73.74
61205;BME280;47068;55.780;37.520;2024-01-27T02:36:55;99888.38;;;-2.56;73.47
61205;BME280;47068;55.780;37.520;2024-01-27T02:39:20;99886.13;;;-2.47;72.70
61205;BME280;47068;55.780;37.520;2024-01-27T02:41:47;99882.13;;;-2.54;72.01
61205;BME280;47068;55.780;37.520;2024-01-27T02:44:12;99874.03;;;-2.65;72.46
61205;BME280;47068;55.780;37.520;2024-01-27T02:46:37;99895.53;;;-2.61;71.92
61205;BME280;47068;55.780;37.520;2024-01-27T02:49:03;99891.25;;;-2.80;71.95
61205;BME280;47068;55.780;37.520;2024-01-27T02:51:28;99882.91;;;-2.86;72.21
61205;BME280;47068;55.780;37.520;2024-01-27T02:53:54;99876.53;;;-2.98;72.76
61205;BME280;47068;55.780;37.520;2024-01-27T02:56:19;99890.94;;;-2.91;73.11
61205;BME280;47068;55.780;37.520;2024-01-27T02:58:45;99900.88;;;-2.82;73.26
61205;BME280;47068;55.780;37.520;2024-01-27T03:01:10;99889.97;;;-2.71;73.21
61205;BME280;47068;55.780;37.520;2024-01-27T03:03:36;99891.25;;;-2.80;72.59
61205;BME280;47068;55.780;37.520;2024-01-27T03:06:01;99890.72;;;-2.86;72.88
61205;BME280;47068;55.780;37.520;2024-01-27T03:08:27;99896.34;;;-2.95;73.53
61205;BME280;47068;55.780;37.520;2024-01-27T03:10:52;99889.72;;;-2.84;73.86
61205;BME280;47068;55.780;37.520;2024-01-27T03:13:18;99886.97;;;-2.63;73.07
61205;BME280;47068;55.780;37.520;2024-01-27T03:15:44;99796.28;;;-3.24;72.96
61205;BME280;47068;55.780;37.520;2024-01-27T03:18:10;99890.63;;;-2.67;72.53
61205;BME280;47068;55.780;37.520;2024-01-27T03:20:35;99894.56;;;-2.59;72.80
61205;BME280;47068;55.780;37.520;2024-01-27T03:23:01;99889.59;;;-2.63;72.50
61205;BME280;47068;55.780;37.520;2024-01-27T03:25:26;99887.25;;;-2.87;72.66
61205;BME280;47068;55.780;37.520;2024-01-27T03:27:52;99890.84;;;-2.89;72.55
61205;BME280;47068;55.780;37.520;2024-01-27T03:30:18;99891.63;;;-3.04;72.65
61205;BME280;47068;55.780;37.520;2024-01-27T03:32:43;99907.22;;;-3.04;73.34
61205;BME280;47068;55.780;37.520;2024-01-27T03:35:09;99907.66;;;-3.13;73.67
61205;BME280;47068;55.780;37.520;2024-01-27T03:37:34;99905.25;;;-3.18;73.73
61205;BME280;47068;55.780;37.520;2024-01-27T03:40:00;99909.84;;;-3.23;73.88
61205;BME280;47068;55.780;37.520;2024-01-27T03:42:26;99922.19;;;-3.09;74.64
61205;BME280;47068;55.780;37.520;2024-01-27T03:44:52;99842.88;;;-3.55;73.37
61205;BME280;47068;55.780;37.520;2024-01-27T03:47:18;99911.41;;;-3.38;73.65
61205;BME280;47068;55.780;37.520;2024-01-27T03:49:43;99916.47;;;-3.35;74.31
61205;BME280;47068;55.780;37.520;2024-01-27T03:52:09;99885.00;;;-3.47;74.48
61205;BME280;47068;55.780;37.520;2024-01-27T03:54:37;99918.44;;;-3.21;74.29
61205;BME280;47068;55.780;37.520;2024-01-27T03:57:03;99921.88;;;-3.21;73.39
61205;BME280;47068;55.780;37.520;2024-01-27T03:59:29;99920.72;;;-3.15;74.39
61205;BME280;47068;55.780;37.520;2024-01-27T04:01:54;99909.53;;;-2.98;73.83
61205;BME280;47068;55.780;37.520;2024-01-27T04:04:20;99942.13;;;-2.72;73.79
61205;BME280;47068;55.780;37.520;2024-01-27T04:06:46;99925.28;;;-2.65;73.52
61205;BME280;47068;55.780;37.520;2024-01-27T04:09:12;99941.97;;;-2.52;72.35
61205;BME280;47068;55.780;37.520;2024-01-27T04:11:37;99959.56;;;-2.74;70.82
61205;BME280;47068;55.780;37.520;2024-01-27T04:14:04;99956.44;;;-3.00;72.25
61205;BME280;47068;55.780;37.520;2024-01-27T04:16:30;99969.59;;;-3.03;72.41
61205;BME280;47068;55.780;37.520;2024-01-27T04:18:56;99958.56;;;-3.08;72.43
61205;BME280;47068;55.780;37.520;2024-01-27T04:21:21;99962.63;;;-3.02;73.00
61205;BME280;47068;55.780;37.520;2024-01-27T04:23:47;99968.81;;;-2.86;73.13
61205;BME280;47068;55.780;37.520;2024-01-27T04:26:13;99975.81;;;-2.69;72.39
61205;BME280;47068;55.780;37.520;2024-01-27T04:28:38;99965.38;;;-2.69;72.67
61205;BME280;47068;55.780;37.520;2024-01-27T04:31:04;99949.66;;;-2.49;72.30
61205;BME280;47068;55.780;37.520;2024-01-27T04:33:30;99967.09;;;-2.34;70.64
61205;BME280;47068;55.780;37.520;2024-01-27T04:35:56;99987.66;;;-2.81;70.78
61205;BME280;47068;55.780;37.520;2024-01-27T04:38:21;99985.56;;;-2.92;71.77
61205;BME280;47068;55.780;37.520;2024-01-27T04:40:48;99967.34;;;-2.92;72.19
61205;BME280;47068;55.780;37.520;2024-01-27T04:43:18;99976.38;;;-2.63;72.13
61205;BME280;47068;55.780;37.520;2024-01-27T04:45:45;99954.41;;;-2.76;71.39
61205;BME280;47068;55.780;37.520;2024-01-27T04:48:11;99987.03;;;-2.50;71.32
61205;BME280;47068;55.780;37.520;2024-01-27T04:50:36;99980.22;;;-2.89;70.88
61205;BME280;47068;55.780;37.520;2024-01-27T04:53:02;99975.97;;;-3.27;71.19
61205;BME280;47068;55.780;37.520;2024-01-27T04:55:27;99981.34;;;-3.32;72.63
61205;BME280;47068;55.780;37.520;2024-01-27T04:57:53;99987.16;;;-3.25;73.10
61205;BME280;47068;55.780;37.520;2024-01-27T05:00:19;99967.88;;;-3.21;72.79
61205;BME280;47068;55.780;37.520;2024-01-27T05:02:45;99943.59;;;-3.22;72.96
61205;BME280;47068;55.780;37.520;2024-01-27T05:05:11;99971.16;;;-2.99;72.06
61205;BME280;47068;55.780;37.520;2024-01-27T05:07:40;99983.03;;;-2.93;72.55
61205;BME280;47068;55.780;37.520;2024-01-27T05:10:05;99995.41;;;-2.80;71.88
61205;BME280;47068;55.780;37.520;2024-01-27T05:12:31;99993.72;;;-2.81;71.29
61205;BME280;47068;55.780;37.520;2024-01-27T05:14:56;99967.56;;;-3.15;71.74
61205;BME280;47068;55.780;37.520;2024-01-27T05:17:22;99987.81;;;-3.03;72.31
61205;BME280;47068;55.780;37.520;2024-01-27T05:19:49;99999.34;;;-2.90;72.25
61205;BME280;47068;55.780;37.520;2024-01-27T05:22:15;99990.63;;;-2.89;72.38
61205;BME280;47068;55.780;37.520;2024-01-27T05:24:41;99960.81;;;-3.00;71.92
61205;BME280;47068;55.780;37.520;2024-01-27T05:27:06;99996.19;;;-2.78;71.30
61205;BME280;47068;55.780;37.520;2024-01-27T05:29:32;100000.75;;;-2.83;70.72
61205;BME280;47068;55.780;37.520;2024-01-27T05:31:58;100007.50;;;-2.97;71.59
61205;BME280;47068;55.780;37.520;2024-01-27T05:34:23;99994.50;;;-2.97;72.22
61205;BME280;47068;55.780;37.520;2024-01-27T05:36:49;100008.25;;;-2.77;71.82
61205;BME280;47068;55.780;37.520;2024-01-27T05:39:14;100027.19;;;-2.73;71.49
61205;BME280;47068;55.780;37.520;2024-01-27T05:41:40;99925.31;;;-3.20;71.94
61205;BME280;47068;55.780;37.520;2024-01-27T05:44:05;100028.63;;;-2.49;71.58
61205;BME280;47068;55.780;37.520;2024-01-27T05:46:31;100030.13;;;-2.43;71.59
61205;BME280;47068;55.780;37.520;2024-01-27T05:48:57;100023.75;;;-2.38;70.83
61205;BME280;47068;55.780;37.520;2024-01-27T05:51:28;100024.84;;;-2.24;71.63
61205;BME280;47068;55.780;37.520;2024-01-27T05:53:53;100005.50;;;-2.20;70.77
61205;BME280;47068;55.780;37.520;2024-01-27T05:56:19;100031.44;;;-2.00;69.98
61205;BME280;47068;55.780;37.520;2024-01-27T05:58:47;100029.84;;;-2.03;70.38
61205;BME280;47068;55.780;37.520;2024-01-27T06:01:13;100035.84;;;-2.01;69.47
61205;BME280;47068;55.780;37.520;2024-01-27T06:03:41;100047.69;;;-2.12;69.21
61205;BME280;47068;55.780;37.520;2024-01-27T06:06:07;100046.53;;;-2.24;69.21
61205;BME280;47068;55.780;37.520;2024-01-27T06:08:32;100046.38;;;-2.21;70.04
61205;BME280;47068;55.780;37.520;2024-01-27T06:10:58;100003.91;;;-2.40;69.95
61205;BME280;47068;55.780;37.520;2024-01-27T06:13:23;100045.19;;;-1.96;70.16
61205;BME280;47068;55.780;37.520;2024-01-27T06:15:49;100051.91;;;-1.92;69.65
61205;BME280;47068;55.780;37.520;2024-01-27T06:18:16;100042.53;;;-1.79;69.11
61205;BME280;47068;55.780;37.520;2024-01-27T06:20:41;100052.72;;;-1.58;68.61
61205;BME280;47068;55.780;37.520;2024-01-27T06:23:07;100064.00;;;-1.57;67.71
61205;BME280;47068;55.780;37.520;2024-01-27T06:25:34;100062.66;;;-1.99;67.48
61205;BME280;47068;55.780;37.520;2024-01-27T06:27:59;100063.81;;;-2.21;68.73
61205;BME280;47068;55.780;37.520;2024-01-27T06:30:25;100054.00;;;-2.35;69.17
61205;BME280;47068;55.780;37.520;2024-01-27T06:32:50;100056.59;;;-2.16;69.45
61205;BME280;47068;55.780;37.520;2024-01-27T06:35:16;100063.19;;;-1.92;69.15
61205;BME280;47068;55.780;37.520;2024-01-27T06:37:42;100062.50;;;-1.95;68.56
61205;BME280;47068;55.780;37.520;2024-01-27T06:40:08;100072.03;;;-1.94;68.47
61205;BME280;47068;55.780;37.520;2024-01-27T06:42:34;100061.59;;;-1.94;68.26
61205;BME280;47068;55.780;37.520;2024-01-27T06:45:00;100073.75;;;-2.12;68.49
61205;BME280;47068;55.780;37.520;2024-01-27T06:47:26;100076.28;;;-2.11;68.80
61205;BME280;47068;55.780;37.520;2024-01-27T06:49:51;100068.94;;;-2.03;69.12
61205;BME280;47068;55.780;37.520;2024-01-27T06:52:17;100071.91;;;-1.93;68.99
61205;BME280;47068;55.780;37.520;2024-01-27T06:54:42;100042.81;;;-2.01;68.02
61205;BME280;47068;55.780;37.520;2024-01-27T06:57:19;100082.34;;;-1.93;68.58
61205;BME280;47068;55.780;37.520;2024-01-27T06:59:49;100085.13;;;-1.79;68.94
61205;BME280;47068;55.780;37.520;2024-01-27T07:02:26;100082.44;;;-1.77;68.20
61205;BME280;47068;55.780;37.520;2024-01-27T07:04:52;100086.88;;;-1.79;68.57
61205;BME280;47068;55.780;37.520;2024-01-27T07:07:22;100095.00;;;-1.85;67.76
61205;BME280;47068;55.780;37.520;2024-01-27T07:09:49;100097.16;;;-2.11;68.03
61205;BME280;47068;55.780;37.520;2024-01-27T07:12:14;100095.38;;;-2.10;69.12
61205;BME280;47068;55.780;37.520;2024-01-27T07:14:39;100092.41;;;-2.03;69.48
61205;BME280;47068;55.780;37.520;2024-01-27T07:17:05;100089.75;;;-2.01;68.99
61205;BME280;47068;55.780;37.520;2024-01-27T07:19:31;100102.66;;;-2.00;69.50
61205;BME280;47068;55.780;37.520;2024-01-27T07:21:57;100104.38;;;-1.99;69.10
61205;BME280;47068;55.780;37.520;2024-01-27T07:24:22;100107.50;;;-1.92;69.26
61205;BME280;47068;55.780;37.520;2024-01-27T07:26:48;100109.44;;;-1.78;69.49
61205;BME280;47068;55.780;37.520;2024-01-27T07:29:13;100100.38;;;-1.71;69.21
61205;BME280;47068;55.780;37.520;2024-01-27T07:31:39;100081.91;;;-1.67;68.59
61205;BME280;47068;55.780;37.520;2024-01-27T07:34:04;100113.59;;;-1.40;68.46
61205;BME280;47068;55.780;37.520;2024-01-27T07:36:32;100107.97;;;-1.32;67.88
61205;BME280;47068;55.780;37.520;2024-01-27T07:38:58;100116.69;;;-1.16;67.14
61205;BME280;47068;55.780;37.520;2024-01-27T07:41:23;100117.78;;;-1.20;67.05
61205;BME280;47068;55.780;37.520;2024-01-27T07:43:49;100129.34;;;-1.08;66.83
61205;BME280;47068;55.780;37.520;2024-01-27T07:46:14;100128.03;;;-1.17;67.04
61205;BME280;47068;55.780;37.520;2024-01-27T07:48:40;100133.19;;;-1.15;67.39
61205;BME280;47068;55.780;37.520;2024-01-27T07:51:06;100142.00;;;-1.01;66.75
61205;BME280;47068;55.780;37.520;2024-01-27T07:53:33;100125.66;;;-1.04;66.25
61205;BME280;47068;55.780;37.520;2024-01-27T07:55:58;100109.94;;;-1.20;66.59
61205;BME280;47068;55.780;37.520;2024-01-27T07:58:24;100143.00;;;-1.03;66.91
61205;BME280;47068;55.780;37.520;2024-01-27T08:00:49;100140.34;;;-1.19;65.95
61205;BME280;47068;55.780;37.520;2024-01-27T08:03:15;100149.63;;;-1.13;66.72
61205;BME280;47068;55.780;37.520;2024-01-27T08:05:40;100136.91;;;-1.37;66.01
61205;BME280;47068;55.780;37.520;2024-01-27T08:08:06;100150.28;;;-1.60;66.30
61205;BME280;47068;55.780;37.520;2024-01-27T08:10:31;100146.81;;;-1.61;67.92
61205;BME280;47068;55.780;37.520;2024-01-27T08:12:57;100157.25;;;-1.61;67.46
61205;BME280;47068;55.780;37.520;2024-01-27T08:15:22;100158.41;;;-1.66;67.64
61205;BME280;47068;55.780;37.520;2024-01-27T08:17:48;100147.91;;;-1.47;68.27
61205;BME280;47068;55.780;37.520;2024-01-27T08:20:14;100148.59;;;-1.27;67.86
61205;BME280;47068;55.780;37.520;2024-01-27T08:22:39;100146.78;;;-1.09;67.48
61205;BME280;47068;55.780;37.520;2024-01-27T08:25:05;100146.50;;;-1.37;66.34
61205;BME280;47068;55.780;37.520;2024-01-27T08:27:31;100150.88;;;-1.38;67.19
61205;BME280;47068;55.780;37.520;2024-01-27T08:29:56;100158.78;;;-1.22;67.48
61205;BME280;47068;55.780;37.520;2024-01-27T08:32:22;100162.97;;;-1.02;67.09
61205;BME280;47068;55.780;37.520;2024-01-27T08:34:47;100169.97;;;-1.03;66.54
61205;BME280;47068;55.780;37.520;2024-01-27T08:37:19;100170.47;;;-0.96;67.50
61205;BME280;47068;55.780;37.520;2024-01-27T08:39:45;100184.75;;;-0.86;66.43
61205;BME280;47068;55.780;37.520;2024-01-27T08:42:11;100184.72;;;-0.69;66.53
61205;BME280;47068;55.780;37.520;2024-01-27T08:44:39;100188.16;;;-0.68;66.12
61205;BME280;47068;55.780;37.520;2024-01-27T08:47:05;100185.47;;;-0.67;66.11
61205;BME280;47068;55.780;37.520;2024-01-27T08:49:31;100178.56;;;-0.68;65.93
61205;BME280;47068;55.780;37.520;2024-01-27T08:51:57;100185.72;;;-0.71;65.78
61205;BME280;47068;55.780;37.520;2024-01-27T08:54:22;100163.09;;;-0.88;65.64
61205;BME280;47068;55.780;37.520;2024-01-27T08:56:48;100177.31;;;-0.76;65.85
61205;BME280;47068;55.780;37.520;2024-01-27T08:59:13;100167.31;;;-0.86;65.80
61205;BME280;47068;55.780;37.520;2024-01-27T09:01:38;100185.22;;;-0.78;65.83
61205;BME280;47068;55.780;37.520;2024-01-27T09:04:04;100176.97;;;-0.70;65.33
61205;BME280;47068;55.780;37.520;2024-01-27T09:06:29;100169.03;;;-0.69;65.32
61205;BME280;47068;55.780;37.520;2024-01-27T09:08:55;100175.03;;;-1.00;64.80
61205;BME280;47068;55.780;37.520;2024-01-27T09:11:20;100179.25;;;-0.97;65.67
61205;BME280;47068;55.780;37.520;2024-01-27T09:13:49;100188.75;;;-0.79;66.03
61205;BME280;47068;55.780;37.520;2024-01-27T09:16:17;100155.56;;;-0.77;65.38
61205;BME280;47068;55.780;37.520;2024-01-27T09:18:43;100174.25;;;-0.69;63.97
61205;BME280;47068;55.780;37.520;2024-01-27T09:21:08;100178.28;;;-1.12;64.65
61205;BME280;47068;55.780;37.520;2024-01-27T09:23:34;100184.94;;;-1.24;65.34
61205;BME280;47068;55.780;37.520;2024-01-27T09:26:00;100174.81;;;-1.30;66.00
61205;BME280;47068;55.780;37.520;2024-01-27T09:28:26;100187.09;;;-1.14;65.57
61205;BME280;47068;55.780;37.520;2024-01-27T09:30:51;100182.81;;;-1.15;66.16
61205;BME280;47068;55.780;37.520;2024-01-27T09:33:17;100163.69;;;-1.16;66.57
61205;BME280;47068;55.780;37.520;2024-01-27T09:35:51;100163.41;;;-0.94;66.07
61205;BME280;47068;55.780;37.520;2024-01-27T09:38:16;100185.03;;;-0.75;65.58
61205;BME280;47068;55.780;37.520;2024-01-27T09:40:43;100181.94;;;-0.66;65.14
61205;BME280;47068;55.780;37.520;2024-01-27T09:43:12;100186.91;;;-0.61;65.41
61205;BME280;47068;55.780;37.520;2024-01-27T09:45:38;100174.25;;;-0.69;65.28
61205;BME280;47068;55.780;37.520;2024-01-27T09:48:05;100191.75;;;-0.54;64.75
61205;BME280;47068;55.780;37.520;2024-01-27T09:50:33;100203.13;;;-0.55;65.22
61205;BME280;47068;55.780;37.520;2024-01-27T09:52:59;100199.09;;;-0.45;65.38
61205;BME280;47068;55.780;37.520;2024-01-27T09:55:25;100199.94;;;-0.44;65.01
61205;BME280;47068;55.780;37.520;2024-01-27T09:57:51;100206.00;;;-0.44;64.69
61205;BME280;47068;55.780;37.520;2024-01-27T10:00:18;100205.50;;;-0.34;65.14
61205;BME280;47068;55.780;37.520;2024-01-27T10:02:45;100204.00;;;-0.38;64.84
61205;BME280;47068;55.780;37.520;2024-01-27T10:05:12;100216.63;;;-0.47;64.51
61205;BME280;47068;55.780;37.520;2024-01-27T10:07:38;100196.78;;;-0.66;64.40
61205;BME280;47068;55.780;37.520;2024-01-27T10:10:05;100209.50;;;-0.60;64.69
61205;BME280;47068;55.780;37.520;2024-01-27T10:12:31;100227.16;;;-0.48;65.41
61205;BME280;47068;55.780;37.520;2024-01-27T10:14:57;100225.50;;;-0.33;64.06
61205;BME280;47068;55.780;37.520;2024-01-27T10:17:23;100221.19;;;-0.34;63.82
61205;BME280;47068;55.780;37.520;2024-01-27T10:20:00;100194.88;;;-0.63;64.44
61205;BME280;47068;55.780;37.520;2024-01-27T10:22:27;100225.94;;;-0.25;64.31
61205;BME280;47068;55.780;37.520;2024-01-27T10:24:52;100215.25;;;-0.21;64.11
61205;BME280;47068;55.780;37.520;2024-01-27T10:27:18;100200.38;;;-0.20;63.77
61205;BME280;47068;55.780;37.520;2024-01-27T10:29:54;100215.75;;;-0.14;62.79
61205;BME280;47068;55.780;37.520;2024-01-27T10:32:21;100213.88;;;-0.12;62.26
61205;BME280;47068;55.780;37.520;2024-01-27T10:35:07;100237.00;;;-0.05;63.18
61205;BME280;47068;55.780;37.520;2024-01-27T10:37:36;100231.28;;;0.20;63.36
61205;BME280;47068;55.780;37.520;2024-01-27T10:42:28;100227.47;;;-0.06;62.79
61205;BME280;47068;55.780;37.520;2024-01-27T10:44:58;100240.81;;;-0.10;62.97
61205;BME280;47068;55.780;37.520;2024-01-27T10:47:27;100234.53;;;-0.23;63.64
61205;BME280;47068;55.780;37.520;2024-01-27T10:49:55;100236.81;;;-0.17;63.56
61205;BME280;47068;55.780;37.520;2024-01-27T10:52:24;100254.97;;;-0.14;63.28
61205;BME280;47068;55.780;37.520;2024-01-27T10:55:04;100258.66;;;-0.18;63.40
61205;BME280;47068;55.780;37.520;2024-01-27T10:57:33;100245.50;;;-0.32;63.79
61205;BME280;47068;55.780;37.520;2024-01-27T11:00:01;100258.22;;;-0.26;63.81
61205;BME280;47068;55.780;37.520;2024-01-27T11:02:32;100257.91;;;-0.20;64.09
61205;BME280;47068;55.780;37.520;2024-01-27T11:05:00;100266.25;;;-0.14;63.58
61205;BME280;47068;55.780;37.520;2024-01-27T11:07:27;100259.00;;;-0.24;63.80
61205;BME280;47068;55.780;37.520;2024-01-27T11:09:53;100257.75;;;-0.17;63.91
61205;BME280;47068;55.780;37.520;2024-01-27T11:12:19;100263.13;;;-0.20;64.30
61205;BME280;47068;55.780;37.520;2024-01-27T11:14:47;100266.69;;;-0.21;64.31
61205;BME280;47068;55.780;37.520;2024-01-27T11:17:14;100273.88;;;-0.09;64.66
61205;BME280;47068;55.780;37.520;2024-01-27T11:19:40;100265.63;;;-0.02;64.13
61205;BME280;47068;55.780;37.520;2024-01-27T11:22:06;100272.78;;;-0.05;63.63
61205;BME280;47068;55.780;37.520;2024-01-27T11:24:32;100271.22;;;-0.25;63.87
61205;BME280;47068;55.780;37.520;2024-01-27T11:27:05;100282.69;;;-0.27;64.44
61205;BME280;47068;55.780;37.520;2024-01-27T11:29:32;100285.81;;;-0.36;63.92
61205;BME280;47068;55.780;37.520;2024-01-27T11:32:03;100292.41;;;-0.29;64.18
61205;BME280;47068;55.780;37.520;2024-01-27T11:34:46;100292.22;;;-0.26;63.84
61205;BME280;47068;55.780;37.520;2024-01-27T11:37:14;100290.72;;;-0.30;64.22
61205;BME280;47068;55.780;37.520;2024-01-27T11:39:40;100295.63;;;-0.24;63.61
61205;BME280;47068;55.780;37.520;2024-01-27T11:44:37;100294.72;;;-0.41;64.26
61205;BME280;47068;55.780;37.520;2024-01-27T11:47:04;100298.38;;;-0.27;64.32
61205;BME280;47068;55.780;37.520;2024-01-27T11:49:30;100291.78;;;-0.34;64.37
61205;BME280;47068;55.780;37.520;2024-01-27T11:51:55;100293.25;;;-0.29;63.94
61205;BME280;47068;55.780;37.520;2024-01-27T11:54:21;100303.94;;;-0.33;63.57
61205;BME280;47068;55.780;37.520;2024-01-27T11:56:46;100297.56;;;-0.78;62.83
61205;BME280;47068;55.780;37.520;2024-01-27T11:59:12;100316.81;;;-1.15;64.06
61205;BME280;47068;55.780;37.520;2024-01-27T12:01:38;100319.91;;;-1.43;65.24
61205;BME280;47068;55.780;37.520;2024-01-27T12:04:09;100324.88;;;-1.74;65.96
61205;BME280;47068;55.780;37.520;2024-01-27T12:06:35;100315.16;;;-1.89;66.83
61205;BME280;47068;55.780;37.520;2024-01-27T12:09:02;100326.69;;;-1.58;67.51
61205;BME280;47068;55.780;37.520;2024-01-27T12:11:28;100325.31;;;-1.29;66.84
61205;BME280;47068;55.780;37.520;2024-01-27T12:13:55;100336.78;;;-1.14;66.60
61205;BME280;47068;55.780;37.520;2024-01-27T12:16:22;100343.16;;;-1.02;66.51
61205;BME280;47068;55.780;37.520;2024-01-27T12:18:51;100339.88;;;-0.89;66.24
61205;BME280;47068;55.780;37.520;2024-01-27T12:21:20;100338.44;;;-0.77;65.61
61205;BME280;47068;55.780;37.520;2024-01-27T12:23:53;100351.78;;;-0.66;65.27
61205;BME280;47068;55.780;37.520;2024-01-27T12:26:20;100357.56;;;-0.59;65.17
61205;BME280;47068;55.780;37.520;2024-01-27T12:28:46;100358.72;;;-0.65;64.18
61205;BME280;47068;55.780;37.520;2024-01-27T12:31:12;100371.91;;;-0.68;64.27
61205;BME280;47068;55.780;37.520;2024-01-27T12:33:38;100366.78;;;-0.69;64.71
61205;BME280;47068;55.780;37.520;2024-01-27T12:36:07;100374.69;;;-0.54;64.15
61205;BME280;47068;55.780;37.520;2024-01-27T12:38:33;100366.69;;;-0.68;64.20
61205;BME280;47068;55.780;37.520;2024-01-27T12:40:58;100384.38;;;-0.73;64.57
61205;BME280;47068;55.780;37.520;2024-01-27T12:43:24;100384.06;;;-0.67;65.03
61205;BME280;47068;55.780;37.520;2024-01-27T12:45:49;100396.66;;;-0.75;65.01